Quick Links (Output Below):   Max & Min Temps   /   Climate Reports   /   Zone Forecasts
River Forecasts   /   Forestry Forecasts   /   Aviation Forecasts   /   Radars   /   Features

Terminal Aerodrome Forecast (Arkadelphia)

Pick a Site:
Arkadelphia | El Dorado | Fayetteville | Fort Smith | Harrison | Highfill | Hot Springs | Jonesboro
Little Rock | Monticello | Mountain Home | Pine Bluff | Texarkana
 Forecast 

KADF 311127Z 3112/0112 05003KT P6SM SCT250
     FM311400 09009KT P6SM SCT250
     FM010000 08003KT P6SM SKC=


 Latest METARs (Observations) 
How to Decode METARs
13Z KADF 311256Z AUTO 03004KT 10SM CLR 24/18 A3012 RMK AO2 T02380183
         SLP211
         
12Z KADF 311156Z AUTO 00000KT 10SM CLR 19/19 A3010 RMK AO2 52005
         T01940188 10244 20188 SLP206
         
11Z KADF 311056Z AUTO 00000KT 10SM CLR 19/19 A3009 RMK AO2 T01940188
         SLP201
         
10Z KADF 310956Z AUTO 00000KT 10SM CLR 20/18 A3009 RMK AO2 T02000183
         SLP202
         
09Z KADF 310856Z AUTO 03003KT 10SM CLR 22/18 A3008 RMK AO2 56000
         T02220183 SLP199
         
08Z KADF 310756Z AUTO 00000KT 10SM CLR 24/18 A3009 RMK AO2 T02380183
         SLP200
         
07Z KADF 310656Z AUTO 03006KT 10SM CLR 24/19 A3008 RMK AO2 T02440188
         SLP196
         
06Z KADF 310556Z AUTO 02005KT 10SM CLR 23/19 A3008 RMK AO2 50003
         T02330194 10316 20233 SLP198
         
05Z KADF 310456Z AUTO 03005KT 10SM CLR 24/21 A3009 RMK AO2 T02440205
         403610244 SLP200
         
04Z KADF 310356Z AUTO 03005KT 10SM CLR 26/20 A3009 RMK AO2 T02610200
         SLP202
         
***** Today's Observations (Above) *****


Back to Main Page
http://www.srh.noaa.gov/lzk/qfcst.php

USA.gov is the U.S. government's official web portal to all federal, state and local government web resources and services.